sensor_id;sensor_type;location;lat;lon;timestamp;P1;durP1;ratioP1;P2;durP2;ratioP2
11203;SDS011;5659;49.408;11.116;2023-02-25T00:01:18;18.57;;;13.33;;
11203;SDS011;5659;49.408;11.116;2023-02-25T00:03:45;21.33;;;12.90;;
11203;SDS011;5659;49.408;11.116;2023-02-25T00:06:11;18.80;;;13.13;;
11203;SDS011;5659;49.408;11.116;2023-02-25T00:08:38;20.93;;;13.57;;
11203;SDS011;5659;49.408;11.116;2023-02-25T00:11:05;20.30;;;13.63;;
11203;SDS011;5659;49.408;11.116;2023-02-25T00:13:32;23.53;;;13.00;;
11203;SDS011;5659;49.408;11.116;2023-02-25T00:16:01;23.63;;;14.40;;
11203;SDS011;5659;49.408;11.116;2023-02-25T00:18:27;25.73;;;13.70;;
11203;SDS011;5659;49.408;11.116;2023-02-25T00:20:54;20.67;;;13.93;;
11203;SDS011;5659;49.408;11.116;2023-02-25T00:23:20;22.00;;;14.53;;
11203;SDS011;5659;49.408;11.116;2023-02-25T00:25:46;22.17;;;14.37;;
11203;SDS011;5659;49.408;11.116;2023-02-25T00:28:13;23.20;;;14.03;;
11203;SDS011;5659;49.408;11.116;2023-02-25T00:30:39;22.20;;;15.13;;
11203;SDS011;5659;49.408;11.116;2023-02-25T00:33:06;25.70;;;15.17;;
11203;SDS011;5659;49.408;11.116;2023-02-25T00:35:33;26.70;;;15.53;;
11203;SDS011;5659;49.408;11.116;2023-02-25T00:37:59;21.40;;;14.47;;
11203;SDS011;5659;49.408;11.116;2023-02-25T00:40:25;23.80;;;15.17;;
11203;SDS011;5659;49.408;11.116;2023-02-25T00:42:51;26.97;;;14.67;;
11203;SDS011;5659;49.408;11.116;2023-02-25T00:45:17;20.60;;;13.70;;
11203;SDS011;5659;49.408;11.116;2023-02-25T00:47:43;18.47;;;12.57;;
11203;SDS011;5659;49.408;11.116;2023-02-25T00:50:09;18.20;;;12.27;;
11203;SDS011;5659;49.408;11.116;2023-02-25T00:52:36;16.23;;;12.17;;
11203;SDS011;5659;49.408;11.116;2023-02-25T00:55:03;20.30;;;13.07;;
11203;SDS011;5659;49.408;11.116;2023-02-25T00:57:30;21.37;;;12.70;;
11203;SDS011;5659;49.408;11.116;2023-02-25T00:59:56;20.07;;;13.00;;
11203;SDS011;5659;49.408;11.116;2023-02-25T01:02:22;17.20;;;11.90;;
11203;SDS011;5659;49.408;11.116;2023-02-25T01:04:47;14.87;;;11.10;;
11203;SDS011;5659;49.408;11.116;2023-02-25T01:07:13;14.73;;;10.30;;
11203;SDS011;5659;49.408;11.116;2023-02-25T01:09:40;16.73;;;11.40;;
11203;SDS011;5659;49.408;11.116;2023-02-25T01:12:06;15.20;;;9.73;;
11203;SDS011;5659;49.408;11.116;2023-02-25T01:14:32;14.27;;;8.27;;
11203;SDS011;5659;49.408;11.116;2023-02-25T01:16:58;13.20;;;8.43;;
11203;SDS011;5659;49.408;11.116;2023-02-25T01:19:27;16.03;;;9.23;;
11203;SDS011;5659;49.408;11.116;2023-02-25T01:21:54;15.37;;;9.67;;
11203;SDS011;5659;49.408;11.116;2023-02-25T01:24:22;15.03;;;9.97;;
11203;SDS011;5659;49.408;11.116;2023-02-25T01:26:49;14.03;;;10.50;;
11203;SDS011;5659;49.408;11.116;2023-02-25T01:29:17;19.13;;;11.67;;
11203;SDS011;5659;49.408;11.116;2023-02-25T01:31:44;21.10;;;11.23;;
11203;SDS011;5659;49.408;11.116;2023-02-25T01:34:14;18.57;;;13.10;;
11203;SDS011;5659;49.408;11.116;2023-02-25T01:36:41;20.17;;;12.77;;
11203;SDS011;5659;49.408;11.116;2023-02-25T01:39:07;18.47;;;12.33;;
11203;SDS011;5659;49.408;11.116;2023-02-25T01:41:33;20.07;;;12.60;;
11203;SDS011;5659;49.408;11.116;2023-02-25T01:44:03;18.50;;;11.77;;
11203;SDS011;5659;49.408;11.116;2023-02-25T01:46:30;22.30;;;12.70;;
11203;SDS011;5659;49.408;11.116;2023-02-25T01:48:56;21.30;;;13.30;;
11203;SDS011;5659;49.408;11.116;2023-02-25T01:51:22;20.20;;;13.57;;
11203;SDS011;5659;49.408;11.116;2023-02-25T01:53:51;18.87;;;13.63;;
11203;SDS011;5659;49.408;11.116;2023-02-25T01:56:19;22.60;;;13.90;;
11203;SDS011;5659;49.408;11.116;2023-02-25T01:58:47;23.97;;;14.23;;
11203;SDS011;5659;49.408;11.116;2023-02-25T02:01:13;24.33;;;14.43;;
11203;SDS011;5659;49.408;11.116;2023-02-25T02:03:40;25.20;;;14.87;;
11203;SDS011;5659;49.408;11.116;2023-02-25T02:06:10;19.17;;;13.20;;
11203;SDS011;5659;49.408;11.116;2023-02-25T02:08:37;20.40;;;14.47;;
11203;SDS011;5659;49.408;11.116;2023-02-25T02:11:05;19.83;;;12.80;;
11203;SDS011;5659;49.408;11.116;2023-02-25T02:13:32;23.77;;;13.23;;
11203;SDS011;5659;49.408;11.116;2023-02-25T02:18:36;21.43;;;12.20;;
11203;SDS011;5659;49.408;11.116;2023-02-25T02:42:34;20.10;;;10.60;;
11203;SDS011;5659;49.408;11.116;2023-02-25T02:47:35;17.87;;;10.13;;
11203;SDS011;5659;49.408;11.116;2023-02-25T02:50:04;16.63;;;9.10;;
11203;SDS011;5659;49.408;11.116;2023-02-25T02:52:32;16.70;;;10.10;;
11203;SDS011;5659;49.408;11.116;2023-02-25T02:55:10;15.43;;;9.37;;
11203;SDS011;5659;49.408;11.116;2023-02-25T02:57:37;14.57;;;10.13;;
11203;SDS011;5659;49.408;11.116;2023-02-25T03:00:11;15.57;;;9.87;;
11203;SDS011;5659;49.408;11.116;2023-02-25T03:02:51;17.07;;;10.03;;
11203;SDS011;5659;49.408;11.116;2023-02-25T03:05:20;17.80;;;10.87;;
11203;SDS011;5659;49.408;11.116;2023-02-25T03:07:50;18.70;;;11.23;;
11203;SDS011;5659;49.408;11.116;2023-02-25T03:10:18;18.87;;;10.60;;
11203;SDS011;5659;49.408;11.116;2023-02-25T03:12:46;18.70;;;10.93;;
11203;SDS011;5659;49.408;11.116;2023-02-25T03:15:12;19.33;;;11.20;;
11203;SDS011;5659;49.408;11.116;2023-02-25T03:17:40;19.10;;;11.47;;
11203;SDS011;5659;49.408;11.116;2023-02-25T03:20:12;16.70;;;11.43;;
11203;SDS011;5659;49.408;11.116;2023-02-25T03:22:41;28.17;;;12.67;;
11203;SDS011;5659;49.408;11.116;2023-02-25T03:25:29;20.20;;;11.47;;
11203;SDS011;5659;49.408;11.116;2023-02-25T03:28:20;18.53;;;11.70;;
11203;SDS011;5659;49.408;11.116;2023-02-25T03:33:12;21.73;;;11.97;;
11203;SDS011;5659;49.408;11.116;2023-02-25T03:35:39;17.47;;;11.03;;
11203;SDS011;5659;49.408;11.116;2023-02-25T03:38:06;18.07;;;10.53;;
11203;SDS011;5659;49.408;11.116;2023-02-25T03:40:33;21.43;;;10.03;;
11203;SDS011;5659;49.408;11.116;2023-02-25T03:43:04;21.07;;;10.40;;
11203;SDS011;5659;49.408;11.116;2023-02-25T03:45:32;23.50;;;9.40;;
11203;SDS011;5659;49.408;11.116;2023-02-25T03:47:59;22.03;;;9.80;;
11203;SDS011;5659;49.408;11.116;2023-02-25T03:50:26;14.70;;;7.97;;
11203;SDS011;5659;49.408;11.116;2023-02-25T03:52:54;22.53;;;8.33;;
11203;SDS011;5659;49.408;11.116;2023-02-25T03:55:20;20.00;;;8.30;;
11203;SDS011;5659;49.408;11.116;2023-02-25T03:57:47;14.97;;;7.27;;
11203;SDS011;5659;49.408;11.116;2023-02-25T04:00:22;19.43;;;7.30;;
11203;SDS011;5659;49.408;11.116;2023-02-25T04:02:49;19.10;;;7.07;;
11203;SDS011;5659;49.408;11.116;2023-02-25T04:05:15;26.53;;;7.67;;
11203;SDS011;5659;49.408;11.116;2023-02-25T04:07:42;16.77;;;7.83;;
11203;SDS011;5659;49.408;11.116;2023-02-25T04:10:08;18.50;;;6.83;;
11203;SDS011;5659;49.408;11.116;2023-02-25T04:12:35;17.20;;;6.50;;
11203;SDS011;5659;49.408;11.116;2023-02-25T04:15:01;19.47;;;6.93;;
11203;SDS011;5659;49.408;11.116;2023-02-25T04:17:27;13.63;;;6.37;;
11203;SDS011;5659;49.408;11.116;2023-02-25T04:19:53;11.97;;;5.03;;
11203;SDS011;5659;49.408;11.116;2023-02-25T04:22:19;15.37;;;6.60;;
11203;SDS011;5659;49.408;11.116;2023-02-25T04:24:45;13.07;;;5.97;;
11203;SDS011;5659;49.408;11.116;2023-02-25T04:27:11;18.50;;;5.90;;
11203;SDS011;5659;49.408;11.116;2023-02-25T04:29:39;13.80;;;5.50;;
11203;SDS011;5659;49.408;11.116;2023-02-25T04:32:05;17.97;;;6.00;;
11203;SDS011;5659;49.408;11.116;2023-02-25T04:34:31;18.07;;;5.90;;
11203;SDS011;5659;49.408;11.116;2023-02-25T04:36:57;12.70;;;5.20;;
11203;SDS011;5659;49.408;11.116;2023-02-25T04:39:26;15.63;;;6.03;;
11203;SDS011;5659;49.408;11.116;2023-02-25T04:41:52;12.97;;;5.07;;
11203;SDS011;5659;49.408;11.116;2023-02-25T04:44:18;14.27;;;5.00;;
11203;SDS011;5659;49.408;11.116;2023-02-25T04:46:44;12.93;;;5.30;;
11203;SDS011;5659;49.408;11.116;2023-02-25T04:49:16;11.27;;;5.03;;
11203;SDS011;5659;49.408;11.116;2023-02-25T04:51:42;11.27;;;5.47;;
11203;SDS011;5659;49.408;11.116;2023-02-25T04:54:08;9.07;;;4.70;;
11203;SDS011;5659;49.408;11.116;2023-02-25T04:56:34;12.40;;;4.93;;
11203;SDS011;5659;49.408;11.116;2023-02-25T04:59:01;16.47;;;5.13;;
11203;SDS011;5659;49.408;11.116;2023-02-25T05:01:27;13.10;;;4.70;;
11203;SDS011;5659;49.408;11.116;2023-02-25T05:03:55;13.20;;;4.83;;
11203;SDS011;5659;49.408;11.116;2023-02-25T05:06:22;13.60;;;5.30;;
11203;SDS011;5659;49.408;11.116;2023-02-25T05:08:48;12.13;;;4.90;;
11203;SDS011;5659;49.408;11.116;2023-02-25T05:11:15;16.20;;;4.73;;
11203;SDS011;5659;49.408;11.116;2023-02-25T05:13:41;11.73;;;4.60;;
11203;SDS011;5659;49.408;11.116;2023-02-25T05:16:11;12.57;;;4.60;;
11203;SDS011;5659;49.408;11.116;2023-02-25T05:18:38;14.53;;;4.60;;
11203;SDS011;5659;49.408;11.116;2023-02-25T05:21:07;13.07;;;4.47;;
11203;SDS011;5659;49.408;11.116;2023-02-25T05:23:34;12.43;;;4.40;;
11203;SDS011;5659;49.408;11.116;2023-02-25T05:25:59;11.27;;;4.07;;
11203;SDS011;5659;49.408;11.116;2023-02-25T05:28:26;12.30;;;4.93;;
11203;SDS011;5659;49.408;11.116;2023-02-25T05:30:52;10.90;;;4.70;;
11203;SDS011;5659;49.408;11.116;2023-02-25T05:33:19;13.77;;;4.43;;
11203;SDS011;5659;49.408;11.116;2023-02-25T05:35:45;15.77;;;4.90;;
11203;SDS011;5659;49.408;11.116;2023-02-25T05:38:11;15.03;;;4.67;;
11203;SDS011;5659;49.408;11.116;2023-02-25T05:40:37;12.73;;;4.33;;
11203;SDS011;5659;49.408;11.116;2023-02-25T05:43:03;11.23;;;4.43;;
11203;SDS011;5659;49.408;11.116;2023-02-25T05:45:29;13.53;;;4.87;;
11203;SDS011;5659;49.408;11.116;2023-02-25T05:47:56;9.50;;;4.13;;
11203;SDS011;5659;49.408;11.116;2023-02-25T05:50:22;11.30;;;3.93;;
11203;SDS011;5659;49.408;11.116;2023-02-25T05:52:48;14.67;;;4.83;;
11203;SDS011;5659;49.408;11.116;2023-02-25T05:55:14;15.77;;;5.37;;
11203;SDS011;5659;49.408;11.116;2023-02-25T05:57:40;12.67;;;4.97;;
11203;SDS011;5659;49.408;11.116;2023-02-25T06:00:06;16.57;;;4.80;;
11203;SDS011;5659;49.408;11.116;2023-02-25T06:02:39;10.73;;;5.00;;
11203;SDS011;5659;49.408;11.116;2023-02-25T06:05:05;9.87;;;4.77;;
11203;SDS011;5659;49.408;11.116;2023-02-25T06:07:31;12.27;;;4.23;;
11203;SDS011;5659;49.408;11.116;2023-02-25T06:09:58;10.30;;;4.33;;
11203;SDS011;5659;49.408;11.116;2023-02-25T06:12:25;18.03;;;4.40;;
11203;SDS011;5659;49.408;11.116;2023-02-25T06:14:51;13.97;;;4.60;;
11203;SDS011;5659;49.408;11.116;2023-02-25T06:17:17;12.93;;;4.33;;
11203;SDS011;5659;49.408;11.116;2023-02-25T06:19:43;15.73;;;4.60;;
11203;SDS011;5659;49.408;11.116;2023-02-25T06:22:09;10.87;;;4.13;;
11203;SDS011;5659;49.408;11.116;2023-02-25T06:24:36;12.63;;;4.30;;
11203;SDS011;5659;49.408;11.116;2023-02-25T06:27:02;10.10;;;3.70;;
11203;SDS011;5659;49.408;11.116;2023-02-25T06:29:28;16.23;;;4.13;;
11203;SDS011;5659;49.408;11.116;2023-02-25T06:31:53;15.13;;;4.27;;
11203;SDS011;5659;49.408;11.116;2023-02-25T06:34:19;9.97;;;3.70;;
11203;SDS011;5659;49.408;11.116;2023-02-25T06:36:45;7.77;;;4.07;;
11203;SDS011;5659;49.408;11.116;2023-02-25T06:39:11;9.63;;;3.80;;
11203;SDS011;5659;49.408;11.116;2023-02-25T06:41:37;9.10;;;3.83;;
11203;SDS011;5659;49.408;11.116;2023-02-25T06:44:04;10.17;;;3.40;;
11203;SDS011;5659;49.408;11.116;2023-02-25T06:46:30;7.90;;;3.60;;
11203;SDS011;5659;49.408;11.116;2023-02-25T06:48:56;17.23;;;3.97;;
11203;SDS011;5659;49.408;11.116;2023-02-25T06:51:22;15.27;;;3.97;;
11203;SDS011;5659;49.408;11.116;2023-02-25T06:53:50;8.10;;;3.90;;
11203;SDS011;5659;49.408;11.116;2023-02-25T06:56:17;10.70;;;3.63;;
11203;SDS011;5659;49.408;11.116;2023-02-25T06:58:44;11.60;;;3.70;;
11203;SDS011;5659;49.408;11.116;2023-02-25T07:01:11;11.47;;;3.50;;
11203;SDS011;5659;49.408;11.116;2023-02-25T07:03:38;12.87;;;3.93;;
11203;SDS011;5659;49.408;11.116;2023-02-25T07:06:04;15.10;;;4.27;;
11203;SDS011;5659;49.408;11.116;2023-02-25T07:08:31;14.60;;;4.50;;
11203;SDS011;5659;49.408;11.116;2023-02-25T07:13:38;10.87;;;4.27;;
11203;SDS011;5659;49.408;11.116;2023-02-25T07:16:04;12.77;;;4.57;;
11203;SDS011;5659;49.408;11.116;2023-02-25T07:18:30;13.77;;;4.63;;
11203;SDS011;5659;49.408;11.116;2023-02-25T07:20:56;9.70;;;3.63;;
11203;SDS011;5659;49.408;11.116;2023-02-25T07:23:22;10.87;;;4.10;;
11203;SDS011;5659;49.408;11.116;2023-02-25T07:25:48;11.70;;;3.70;;
11203;SDS011;5659;49.408;11.116;2023-02-25T07:28:14;12.47;;;4.07;;
11203;SDS011;5659;49.408;11.116;2023-02-25T07:30:40;8.67;;;3.60;;
11203;SDS011;5659;49.408;11.116;2023-02-25T07:33:06;14.13;;;3.93;;
11203;SDS011;5659;49.408;11.116;2023-02-25T07:35:32;13.03;;;4.60;;
11203;SDS011;5659;49.408;11.116;2023-02-25T07:37:59;13.43;;;3.63;;
11203;SDS011;5659;49.408;11.116;2023-02-25T07:40:25;10.80;;;3.90;;
11203;SDS011;5659;49.408;11.116;2023-02-25T07:42:51;12.60;;;4.27;;
11203;SDS011;5659;49.408;11.116;2023-02-25T07:45:17;9.13;;;3.60;;
11203;SDS011;5659;49.408;11.116;2023-02-25T07:47:42;8.43;;;3.27;;
11203;SDS011;5659;49.408;11.116;2023-02-25T07:50:09;9.17;;;3.40;;
11203;SDS011;5659;49.408;11.116;2023-02-25T07:52:35;14.53;;;3.60;;
11203;SDS011;5659;49.408;11.116;2023-02-25T07:55:02;13.03;;;3.63;;
11203;SDS011;5659;49.408;11.116;2023-02-25T07:57:28;10.50;;;3.87;;
11203;SDS011;5659;49.408;11.116;2023-02-25T07:59:54;10.13;;;3.57;;
11203;SDS011;5659;49.408;11.116;2023-02-25T08:02:20;14.00;;;4.07;;
11203;SDS011;5659;49.408;11.116;2023-02-25T08:04:46;15.50;;;3.77;;
11203;SDS011;5659;49.408;11.116;2023-02-25T08:07:12;9.60;;;3.20;;
11203;SDS011;5659;49.408;11.116;2023-02-25T08:09:38;11.23;;;3.70;;
11203;SDS011;5659;49.408;11.116;2023-02-25T08:12:05;15.30;;;3.80;;
11203;SDS011;5659;49.408;11.116;2023-02-25T08:14:32;12.53;;;3.73;;
11203;SDS011;5659;49.408;11.116;2023-02-25T08:17:05;11.87;;;3.73;;
11203;SDS011;5659;49.408;11.116;2023-02-25T08:19:31;9.03;;;4.00;;
11203;SDS011;5659;49.408;11.116;2023-02-25T08:21:57;12.40;;;3.90;;
11203;SDS011;5659;49.408;11.116;2023-02-25T08:24:24;14.93;;;3.90;;
11203;SDS011;5659;49.408;11.116;2023-02-25T08:26:50;11.83;;;3.60;;
11203;SDS011;5659;49.408;11.116;2023-02-25T08:29:16;8.57;;;3.23;;
11203;SDS011;5659;49.408;11.116;2023-02-25T08:31:42;11.93;;;3.90;;
11203;SDS011;5659;49.408;11.116;2023-02-25T08:34:08;18.20;;;4.10;;
11203;SDS011;5659;49.408;11.116;2023-02-25T08:36:34;10.57;;;3.57;;
11203;SDS011;5659;49.408;11.116;2023-02-25T08:39:01;18.50;;;3.97;;
11203;SDS011;5659;49.408;11.116;2023-02-25T08:41:27;12.67;;;3.70;;
11203;SDS011;5659;49.408;11.116;2023-02-25T08:43:54;11.57;;;3.50;;
11203;SDS011;5659;49.408;11.116;2023-02-25T08:46:25;10.53;;;3.57;;
11203;SDS011;5659;49.408;11.116;2023-02-25T08:48:52;12.73;;;3.70;;
11203;SDS011;5659;49.408;11.116;2023-02-25T08:51:18;11.00;;;4.00;;
11203;SDS011;5659;49.408;11.116;2023-02-25T08:53:44;12.10;;;4.03;;
11203;SDS011;5659;49.408;11.116;2023-02-25T08:56:11;13.10;;;3.43;;
11203;SDS011;5659;49.408;11.116;2023-02-25T08:58:37;9.63;;;4.20;;
11203;SDS011;5659;49.408;11.116;2023-02-25T09:01:11;10.73;;;3.60;;
11203;SDS011;5659;49.408;11.116;2023-02-25T09:03:38;10.83;;;3.27;;
11203;SDS011;5659;49.408;11.116;2023-02-25T09:06:04;13.23;;;4.13;;
11203;SDS011;5659;49.408;11.116;2023-02-25T09:08:30;12.37;;;3.63;;
11203;SDS011;5659;49.408;11.116;2023-02-25T09:10:56;10.83;;;3.87;;
11203;SDS011;5659;49.408;11.116;2023-02-25T09:13:22;13.20;;;3.77;;
11203;SDS011;5659;49.408;11.116;2023-02-25T09:15:54;11.87;;;3.67;;
11203;SDS011;5659;49.408;11.116;2023-02-25T09:18:20;12.20;;;3.90;;
11203;SDS011;5659;49.408;11.116;2023-02-25T09:20:49;11.50;;;4.10;;
11203;SDS011;5659;49.408;11.116;2023-02-25T09:23:15;11.73;;;3.80;;
11203;SDS011;5659;49.408;11.116;2023-02-25T09:25:41;10.43;;;3.93;;
11203;SDS011;5659;49.408;11.116;2023-02-25T09:28:13;14.70;;;4.50;;
11203;SDS011;5659;49.408;11.116;2023-02-25T09:30:39;12.27;;;4.37;;
11203;SDS011;5659;49.408;11.116;2023-02-25T09:33:05;13.87;;;4.00;;
11203;SDS011;5659;49.408;11.116;2023-02-25T09:35:31;12.23;;;3.73;;
11203;SDS011;5659;49.408;11.116;2023-02-25T09:37:57;12.73;;;3.90;;
11203;SDS011;5659;49.408;11.116;2023-02-25T09:40:23;9.57;;;3.63;;
11203;SDS011;5659;49.408;11.116;2023-02-25T09:45:24;10.60;;;3.80;;
11203;SDS011;5659;49.408;11.116;2023-02-25T09:47:56;15.17;;;3.50;;
11203;SDS011;5659;49.408;11.116;2023-02-25T09:50:32;9.33;;;3.80;;
11203;SDS011;5659;49.408;11.116;2023-02-25T09:53:03;10.47;;;3.97;;
11203;SDS011;5659;49.408;11.116;2023-02-25T09:55:33;7.87;;;3.50;;
11203;SDS011;5659;49.408;11.116;2023-02-25T09:58:04;9.67;;;3.50;;
11203;SDS011;5659;49.408;11.116;2023-02-25T10:00:34;11.13;;;3.90;;
11203;SDS011;5659;49.408;11.116;2023-02-25T10:03:05;8.40;;;3.40;;
11203;SDS011;5659;49.408;11.116;2023-02-25T10:05:35;7.87;;;3.53;;
11203;SDS011;5659;49.408;11.116;2023-02-25T10:13:16;10.40;;;3.50;;
11203;SDS011;5659;49.408;11.116;2023-02-25T10:15:54;10.47;;;3.47;;
11203;SDS011;5659;49.408;11.116;2023-02-25T10:23:54;11.13;;;3.50;;
11203;SDS011;5659;49.408;11.116;2023-02-25T10:26:33;6.63;;;2.90;;
11203;SDS011;5659;49.408;11.116;2023-02-25T10:29:04;10.80;;;3.27;;
11203;SDS011;5659;49.408;11.116;2023-02-25T10:31:31;8.03;;;3.17;;
11203;SDS011;5659;49.408;11.116;2023-02-25T10:34:00;9.17;;;3.60;;
11203;SDS011;5659;49.408;11.116;2023-02-25T10:36:33;10.10;;;3.47;;
11203;SDS011;5659;49.408;11.116;2023-02-25T10:39:01;13.33;;;3.70;;
11203;SDS011;5659;49.408;11.116;2023-02-25T10:41:28;8.20;;;3.23;;
11203;SDS011;5659;49.408;11.116;2023-02-25T10:43:54;8.10;;;2.93;;
11203;SDS011;5659;49.408;11.116;2023-02-25T10:48:56;10.90;;;3.20;;
11203;SDS011;5659;49.408;11.116;2023-02-25T10:51:23;8.50;;;2.90;;
11203;SDS011;5659;49.408;11.116;2023-02-25T10:56:17;8.33;;;3.17;;
11203;SDS011;5659;49.408;11.116;2023-02-25T10:58:44;5.63;;;2.73;;
11203;SDS011;5659;49.408;11.116;2023-02-25T11:03:44;8.13;;;2.70;;
11203;SDS011;5659;49.408;11.116;2023-02-25T11:06:12;9.73;;;2.83;;
11203;SDS011;5659;49.408;11.116;2023-02-25T11:08:38;9.83;;;3.20;;
11203;SDS011;5659;49.408;11.116;2023-02-25T11:14:32;7.33;;;3.13;;
11203;SDS011;5659;49.408;11.116;2023-02-25T11:16:39;10.70;;;3.30;;
11203;SDS011;5659;49.408;11.116;2023-02-25T11:19:12;11.40;;;3.53;;
11203;SDS011;5659;49.408;11.116;2023-02-25T11:21:39;11.13;;;3.07;;
11203;SDS011;5659;49.408;11.116;2023-02-25T11:24:12;7.03;;;2.80;;
11203;SDS011;5659;49.408;11.116;2023-02-25T11:26:44;8.33;;;2.67;;
11203;SDS011;5659;49.408;11.116;2023-02-25T11:29:15;9.80;;;3.00;;
11203;SDS011;5659;49.408;11.116;2023-02-25T11:31:44;11.10;;;3.30;;
11203;SDS011;5659;49.408;11.116;2023-02-25T11:34:20;7.37;;;2.97;;
11203;SDS011;5659;49.408;11.116;2023-02-25T11:36:46;6.00;;;2.93;;
11203;SDS011;5659;49.408;11.116;2023-02-25T11:39:22;9.10;;;3.67;;
11203;SDS011;5659;49.408;11.116;2023-02-25T11:42:00;7.43;;;3.20;;
11203;SDS011;5659;49.408;11.116;2023-02-25T11:46:57;10.37;;;3.90;;
11203;SDS011;5659;49.408;11.116;2023-02-25T11:49:27;10.10;;;4.50;;
11203;SDS011;5659;49.408;11.116;2023-02-25T11:54:32;5.20;;;3.00;;
11203;SDS011;5659;49.408;11.116;2023-02-25T11:57:17;5.83;;;2.93;;
11203;SDS011;5659;49.408;11.116;2023-02-25T12:10:09;3.27;;;2.17;;
11203;SDS011;5659;49.408;11.116;2023-02-25T12:12:53;4.30;;;2.13;;
11203;SDS011;5659;49.408;11.116;2023-02-25T12:20:42;6.03;;;3.00;;
11203;SDS011;5659;49.408;11.116;2023-02-25T12:26:13;7.90;;;2.90;;
11203;SDS011;5659;49.408;11.116;2023-02-25T12:28:45;5.93;;;3.47;;
11203;SDS011;5659;49.408;11.116;2023-02-25T12:31:27;8.77;;;4.27;;
11203;SDS011;5659;49.408;11.116;2023-02-25T12:41:47;7.30;;;4.33;;
11203;SDS011;5659;49.408;11.116;2023-02-25T12:49:48;11.20;;;5.37;;
11203;SDS011;5659;49.408;11.116;2023-02-25T12:52:18;14.17;;;5.37;;
11203;SDS011;5659;49.408;11.116;2023-02-25T13:10:36;2.97;;;1.80;;
11203;SDS011;5659;49.408;11.116;2023-02-25T13:18:42;4.47;;;1.80;;
11203;SDS011;5659;49.408;11.116;2023-02-25T13:21:23;3.97;;;2.33;;
11203;SDS011;5659;49.408;11.116;2023-02-25T13:29:04;3.70;;;2.07;;
11203;SDS011;5659;49.408;11.116;2023-02-25T13:34:58;2.07;;;1.80;;
11203;SDS011;5659;49.408;11.116;2023-02-25T13:53:22;2.50;;;1.90;;
11203;SDS011;5659;49.408;11.116;2023-02-25T13:58:22;4.10;;;2.03;;
11203;SDS011;5659;49.408;11.116;2023-02-25T14:06:00;2.10;;;1.90;;
11203;SDS011;5659;49.408;11.116;2023-02-25T14:13:51;3.67;;;2.27;;
11203;SDS011;5659;49.408;11.116;2023-02-25T14:18:59;2.97;;;2.47;;
11203;SDS011;5659;49.408;11.116;2023-02-25T14:21:34;2.87;;;2.00;;
11203;SDS011;5659;49.408;11.116;2023-02-25T14:26:39;2.20;;;1.63;;
11203;SDS011;5659;49.408;11.116;2023-02-25T14:40:17;4.93;;;2.20;;
11203;SDS011;5659;49.408;11.116;2023-02-25T14:47:41;3.50;;;2.20;;
11203;SDS011;5659;49.408;11.116;2023-02-25T14:50:11;1.63;;;1.53;;
11203;SDS011;5659;49.408;11.116;2023-02-25T15:13:34;4.60;;;1.97;;
11203;SDS011;5659;49.408;11.116;2023-02-25T15:24:01;2.83;;;2.17;;
11203;SDS011;5659;49.408;11.116;2023-02-25T15:26:49;3.37;;;1.87;;
11203;SDS011;5659;49.408;11.116;2023-02-25T15:29:56;4.00;;;2.30;;
11203;SDS011;5659;49.408;11.116;2023-02-25T15:34:35;3.33;;;1.87;;
11203;SDS011;5659;49.408;11.116;2023-02-25T15:42:41;2.47;;;1.90;;
11203;SDS011;5659;49.408;11.116;2023-02-25T15:53:05;6.83;;;3.90;;
11203;SDS011;5659;49.408;11.116;2023-02-25T15:55:34;10.63;;;4.17;;
11203;SDS011;5659;49.408;11.116;2023-02-25T15:58:00;11.33;;;4.97;;
11203;SDS011;5659;49.408;11.116;2023-02-25T16:05:49;8.00;;;3.80;;
11203;SDS011;5659;49.408;11.116;2023-02-25T16:08:22;6.90;;;3.90;;
11203;SDS011;5659;49.408;11.116;2023-02-25T16:10:49;5.47;;;3.60;;
11203;SDS011;5659;49.408;11.116;2023-02-25T16:13:22;5.87;;;2.80;;
11203;SDS011;5659;49.408;11.116;2023-02-25T16:15:51;9.67;;;4.63;;
11203;SDS011;5659;49.408;11.116;2023-02-25T16:18:23;9.63;;;5.10;;
11203;SDS011;5659;49.408;11.116;2023-02-25T16:20:53;6.13;;;3.90;;
11203;SDS011;5659;49.408;11.116;2023-02-25T16:23:22;4.30;;;2.27;;
11203;SDS011;5659;49.408;11.116;2023-02-25T16:28:36;6.37;;;2.47;;
11203;SDS011;5659;49.408;11.116;2023-02-25T16:31:08;5.90;;;2.53;;
11203;SDS011;5659;49.408;11.116;2023-02-25T16:33:44;8.30;;;3.20;;
11203;SDS011;5659;49.408;11.116;2023-02-25T16:36:15;4.67;;;2.83;;
11203;SDS011;5659;49.408;11.116;2023-02-25T16:38:50;3.20;;;2.43;;
11203;SDS011;5659;49.408;11.116;2023-02-25T16:41:18;7.00;;;2.70;;
11203;SDS011;5659;49.408;11.116;2023-02-25T16:43:44;3.97;;;2.20;;
11203;SDS011;5659;49.408;11.116;2023-02-25T16:46:12;6.17;;;2.40;;
11203;SDS011;5659;49.408;11.116;2023-02-25T16:48:50;5.93;;;2.30;;
11203;SDS011;5659;49.408;11.116;2023-02-25T16:56:41;2.57;;;1.87;;
11203;SDS011;5659;49.408;11.116;2023-02-25T17:01:34;3.43;;;1.80;;
11203;SDS011;5659;49.408;11.116;2023-02-25T17:04:07;3.60;;;1.90;;
11203;SDS011;5659;49.408;11.116;2023-02-25T17:06:33;4.90;;;2.03;;
11203;SDS011;5659;49.408;11.116;2023-02-25T17:08:59;5.10;;;2.10;;
11203;SDS011;5659;49.408;11.116;2023-02-25T17:11:25;3.07;;;2.10;;
11203;SDS011;5659;49.408;11.116;2023-02-25T17:13:52;6.70;;;2.73;;
11203;SDS011;5659;49.408;11.116;2023-02-25T17:16:25;5.40;;;2.53;;
11203;SDS011;5659;49.408;11.116;2023-02-25T17:18:53;6.57;;;2.53;;
11203;SDS011;5659;49.408;11.116;2023-02-25T17:21:27;4.47;;;2.50;;
11203;SDS011;5659;49.408;11.116;2023-02-25T17:23:54;5.77;;;2.37;;
11203;SDS011;5659;49.408;11.116;2023-02-25T17:26:20;3.63;;;2.20;;
11203;SDS011;5659;49.408;11.116;2023-02-25T17:28:48;5.67;;;2.20;;
11203;SDS011;5659;49.408;11.116;2023-02-25T17:31:18;5.03;;;2.40;;
11203;SDS011;5659;49.408;11.116;2023-02-25T17:33:48;5.97;;;2.53;;
11203;SDS011;5659;49.408;11.116;2023-02-25T17:36:15;4.00;;;2.60;;
11203;SDS011;5659;49.408;11.116;2023-02-25T17:38:42;5.47;;;2.40;;
11203;SDS011;5659;49.408;11.116;2023-02-25T17:41:19;2.87;;;2.03;;
11203;SDS011;5659;49.408;11.116;2023-02-25T17:43:45;4.73;;;2.40;;
11203;SDS011;5659;49.408;11.116;2023-02-25T17:46:26;4.83;;;2.67;;
11203;SDS011;5659;49.408;11.116;2023-02-25T17:48:56;5.40;;;2.23;;
11203;SDS011;5659;49.408;11.116;2023-02-25T17:51:44;4.10;;;2.10;;
11203;SDS011;5659;49.408;11.116;2023-02-25T17:54:14;3.67;;;2.30;;
11203;SDS011;5659;49.408;11.116;2023-02-25T17:56:41;5.37;;;2.17;;
11203;SDS011;5659;49.408;11.116;2023-02-25T18:01:44;6.37;;;2.50;;
11203;SDS011;5659;49.408;11.116;2023-02-25T18:04:19;5.00;;;2.30;;
11203;SDS011;5659;49.408;11.116;2023-02-25T18:06:47;2.63;;;2.00;;
11203;SDS011;5659;49.408;11.116;2023-02-25T18:09:29;3.10;;;1.90;;
11203;SDS011;5659;49.408;11.116;2023-02-25T18:11:56;5.37;;;2.27;;
11203;SDS011;5659;49.408;11.116;2023-02-25T18:14:33;4.00;;;2.00;;
11203;SDS011;5659;49.408;11.116;2023-02-25T18:17:00;3.57;;;1.77;;
11203;SDS011;5659;49.408;11.116;2023-02-25T18:19:34;2.30;;;1.80;;
11203;SDS011;5659;49.408;11.116;2023-02-25T18:22:02;1.93;;;1.70;;
11203;SDS011;5659;49.408;11.116;2023-02-25T18:24:30;2.23;;;1.80;;
11203;SDS011;5659;49.408;11.116;2023-02-25T18:27:05;3.27;;;1.93;;
11203;SDS011;5659;49.408;11.116;2023-02-25T18:29:32;7.13;;;2.10;;
11203;SDS011;5659;49.408;11.116;2023-02-25T18:31:58;4.30;;;1.80;;
11203;SDS011;5659;49.408;11.116;2023-02-25T18:34:24;3.73;;;1.60;;
11203;SDS011;5659;49.408;11.116;2023-02-25T18:36:50;1.90;;;1.80;;
11203;SDS011;5659;49.408;11.116;2023-02-25T18:39:16;1.70;;;1.60;;